Weather at Budaörs Airfield

Public forecast

Using degrees Celsius for public forecast. Weather courtesy of forecast.io.

Closest aviation weather report (METAR) to Budaörs Airfield

Closest report is Budapest Liszt Ferenc International Airport, 11.5 nm (21.3 km) E.

2024/05/23 05:00 (retrieved 10 minutes ago)

LHBP 230500Z 32004KT CAVOK 14/13 Q1013 NOSIG

Closest aviation forecast (TAF) to Budaörs Airfield

Forecast is more than 6 hours old.

Closest forecast is Sliač Airport, 71.5 nm (132.4 km) N.

2024/05/22 18:54 (retrieved 10 hours ago)

TAF LZSL 221630Z 2218/2306 VRB02KT 9999 SCT050 PROB40 TEMPO 2302/2306 0400 FG BKN002